sensor_id;sensor_type;location;lat;lon;timestamp;P1;durP1;ratioP1;P2;durP2;ratioP2
76978;SDS011;65911;47.502;19.148;2023-05-14T00:02:46;3.73;;;3.07;;
76978;SDS011;65911;47.502;19.148;2023-05-14T00:05:48;5.00;;;3.50;;
76978;SDS011;65911;47.502;19.148;2023-05-14T00:08:51;3.90;;;3.42;;
76978;SDS011;65911;47.502;19.148;2023-05-14T00:11:53;4.57;;;3.43;;
76978;SDS011;65911;47.502;19.148;2023-05-14T00:14:56;4.07;;;3.30;;
76978;SDS011;65911;47.502;19.148;2023-05-14T00:17:58;3.92;;;3.40;;
76978;SDS011;65911;47.502;19.148;2023-05-14T00:21:01;5.65;;;3.40;;
76978;SDS011;65911;47.502;19.148;2023-05-14T00:24:03;4.20;;;2.92;;
76978;SDS011;65911;47.502;19.148;2023-05-14T00:27:05;3.97;;;2.67;;
76978;SDS011;65911;47.502;19.148;2023-05-14T00:30:08;4.03;;;3.35;;
76978;SDS011;65911;47.502;19.148;2023-05-14T00:33:10;5.30;;;3.13;;
76978;SDS011;65911;47.502;19.148;2023-05-14T00:36:13;4.00;;;3.20;;
76978;SDS011;65911;47.502;19.148;2023-05-14T00:39:15;5.65;;;3.20;;
76978;SDS011;65911;47.502;19.148;2023-05-14T00:42:17;3.67;;;2.97;;
76978;SDS011;65911;47.502;19.148;2023-05-14T00:45:19;5.70;;;2.95;;
76978;SDS011;65911;47.502;19.148;2023-05-14T00:48:21;6.15;;;3.08;;
76978;SDS011;65911;47.502;19.148;2023-05-14T00:51:24;5.00;;;3.35;;
76978;SDS011;65911;47.502;19.148;2023-05-14T00:54:26;3.83;;;3.20;;
76978;SDS011;65911;47.502;19.148;2023-05-14T00:57:29;4.05;;;3.20;;
76978;SDS011;65911;47.502;19.148;2023-05-14T01:00:31;5.70;;;3.53;;
76978;SDS011;65911;47.502;19.148;2023-05-14T01:03:34;5.03;;;3.00;;
76978;SDS011;65911;47.502;19.148;2023-05-14T01:13:30;4.37;;;3.00;;
76978;SDS011;65911;47.502;19.148;2023-05-14T01:16:45;5.90;;;3.53;;
76978;SDS011;65911;47.502;19.148;2023-05-14T01:19:53;6.47;;;2.88;;
76978;SDS011;65911;47.502;19.148;2023-05-14T01:22:56;3.83;;;3.10;;
76978;SDS011;65911;47.502;19.148;2023-05-14T01:25:58;4.88;;;3.17;;
76978;SDS011;65911;47.502;19.148;2023-05-14T01:29:03;3.85;;;3.28;;
76978;SDS011;65911;47.502;19.148;2023-05-14T01:32:24;3.72;;;3.10;;
76978;SDS011;65911;47.502;19.148;2023-05-14T01:35:28;4.60;;;3.40;;
76978;SDS011;65911;47.502;19.148;2023-05-14T01:38:31;4.43;;;3.00;;
76978;SDS011;65911;47.502;19.148;2023-05-14T01:41:35;5.72;;;3.13;;
76978;SDS011;65911;47.502;19.148;2023-05-14T01:44:38;4.53;;;3.10;;
76978;SDS011;65911;47.502;19.148;2023-05-14T01:47:40;4.68;;;3.00;;
76978;SDS011;65911;47.502;19.148;2023-05-14T01:50:42;5.03;;;3.00;;
76978;SDS011;65911;47.502;19.148;2023-05-14T01:53:45;4.68;;;3.35;;
76978;SDS011;65911;47.502;19.148;2023-05-14T01:56:47;4.43;;;2.92;;
76978;SDS011;65911;47.502;19.148;2023-05-14T01:59:49;4.65;;;3.15;;
76978;SDS011;65911;47.502;19.148;2023-05-14T02:02:51;3.22;;;2.70;;
76978;SDS011;65911;47.502;19.148;2023-05-14T02:05:53;6.63;;;3.13;;
76978;SDS011;65911;47.502;19.148;2023-05-14T02:08:55;4.88;;;3.10;;
76978;SDS011;65911;47.502;19.148;2023-05-14T02:11:58;3.35;;;2.70;;
76978;SDS011;65911;47.502;19.148;2023-05-14T02:15:01;5.67;;;2.97;;
76978;SDS011;65911;47.502;19.148;2023-05-14T02:18:03;4.93;;;2.97;;
76978;SDS011;65911;47.502;19.148;2023-05-14T02:21:06;5.43;;;2.85;;
76978;SDS011;65911;47.502;19.148;2023-05-14T02:24:08;3.35;;;3.05;;
76978;SDS011;65911;47.502;19.148;2023-05-14T02:27:10;3.65;;;3.00;;
76978;SDS011;65911;47.502;19.148;2023-05-14T02:30:14;5.00;;;3.40;;
76978;SDS011;65911;47.502;19.148;2023-05-14T02:33:16;4.45;;;3.30;;
76978;SDS011;65911;47.502;19.148;2023-05-14T02:36:18;3.43;;;3.00;;
76978;SDS011;65911;47.502;19.148;2023-05-14T02:39:21;4.82;;;3.00;;
76978;SDS011;65911;47.502;19.148;2023-05-14T02:42:23;3.40;;;2.58;;
76978;SDS011;65911;47.502;19.148;2023-05-14T02:45:25;3.33;;;2.90;;
76978;SDS011;65911;47.502;19.148;2023-05-14T02:48:27;4.97;;;2.80;;
76978;SDS011;65911;47.502;19.148;2023-05-14T02:51:30;4.22;;;2.90;;
76978;SDS011;65911;47.502;19.148;2023-05-14T02:54:32;3.00;;;2.50;;
76978;SDS011;65911;47.502;19.148;2023-05-14T02:57:34;5.60;;;3.10;;
76978;SDS011;65911;47.502;19.148;2023-05-14T03:00:36;3.42;;;2.72;;
76978;SDS011;65911;47.502;19.148;2023-05-14T03:03:39;2.92;;;2.70;;
76978;SDS011;65911;47.502;19.148;2023-05-14T03:06:42;3.37;;;2.57;;
76978;SDS011;65911;47.502;19.148;2023-05-14T03:09:44;3.38;;;2.80;;
76978;SDS011;65911;47.502;19.148;2023-05-14T03:12:46;3.35;;;2.80;;
76978;SDS011;65911;47.502;19.148;2023-05-14T03:15:48;4.03;;;2.40;;
76978;SDS011;65911;47.502;19.148;2023-05-14T03:18:55;3.90;;;2.53;;
76978;SDS011;65911;47.502;19.148;2023-05-14T03:21:57;3.72;;;2.63;;
76978;SDS011;65911;47.502;19.148;2023-05-14T03:25:00;4.05;;;2.80;;
76978;SDS011;65911;47.502;19.148;2023-05-14T03:28:02;3.22;;;2.67;;
76978;SDS011;65911;47.502;19.148;2023-05-14T03:31:04;3.00;;;2.70;;
76978;SDS011;65911;47.502;19.148;2023-05-14T03:34:07;2.80;;;2.22;;
76978;SDS011;65911;47.502;19.148;2023-05-14T03:37:09;2.87;;;2.53;;
76978;SDS011;65911;47.502;19.148;2023-05-14T03:40:12;4.53;;;3.08;;
76978;SDS011;65911;47.502;19.148;2023-05-14T03:43:14;4.53;;;2.65;;
76978;SDS011;65911;47.502;19.148;2023-05-14T03:46:17;3.77;;;2.73;;
76978;SDS011;65911;47.502;19.148;2023-05-14T03:49:20;3.85;;;2.85;;
76978;SDS011;65911;47.502;19.148;2023-05-14T03:52:22;4.18;;;3.30;;
76978;SDS011;65911;47.502;19.148;2023-05-14T03:55:24;5.00;;;2.72;;
76978;SDS011;65911;47.502;19.148;2023-05-14T03:58:27;3.75;;;2.65;;
76978;SDS011;65911;47.502;19.148;2023-05-14T04:01:29;7.07;;;3.08;;
76978;SDS011;65911;47.502;19.148;2023-05-14T04:04:32;3.72;;;2.70;;
76978;SDS011;65911;47.502;19.148;2023-05-14T04:07:36;3.90;;;2.73;;
76978;SDS011;65911;47.502;19.148;2023-05-14T04:10:38;3.40;;;2.47;;
76978;SDS011;65911;47.502;19.148;2023-05-14T04:13:40;3.30;;;2.58;;
76978;SDS011;65911;47.502;19.148;2023-05-14T04:16:43;4.40;;;2.37;;
76978;SDS011;65911;47.502;19.148;2023-05-14T04:19:46;4.20;;;2.50;;
76978;SDS011;65911;47.502;19.148;2023-05-14T04:22:48;3.00;;;2.65;;
76978;SDS011;65911;47.502;19.148;2023-05-14T04:25:50;5.10;;;2.72;;
76978;SDS011;65911;47.502;19.148;2023-05-14T04:28:52;3.15;;;2.42;;
76978;SDS011;65911;47.502;19.148;2023-05-14T04:31:55;3.13;;;2.65;;
76978;SDS011;65911;47.502;19.148;2023-05-14T04:34:57;5.85;;;2.30;;
76978;SDS011;65911;47.502;19.148;2023-05-14T04:37:59;3.63;;;2.30;;
76978;SDS011;65911;47.502;19.148;2023-05-14T04:41:01;2.67;;;2.40;;
76978;SDS011;65911;47.502;19.148;2023-05-14T04:44:03;4.88;;;2.60;;
76978;SDS011;65911;47.502;19.148;2023-05-14T04:47:08;4.67;;;2.60;;
76978;SDS011;65911;47.502;19.148;2023-05-14T04:50:11;3.42;;;2.42;;
76978;SDS011;65911;47.502;19.148;2023-05-14T04:53:14;5.38;;;2.97;;
76978;SDS011;65911;47.502;19.148;2023-05-14T04:56:16;3.45;;;2.60;;
76978;SDS011;65911;47.502;19.148;2023-05-14T04:59:18;3.38;;;2.45;;
76978;SDS011;65911;47.502;19.148;2023-05-14T05:02:20;3.50;;;2.53;;
76978;SDS011;65911;47.502;19.148;2023-05-14T05:05:22;4.75;;;2.70;;
76978;SDS011;65911;47.502;19.148;2023-05-14T05:08:24;4.30;;;2.33;;
76978;SDS011;65911;47.502;19.148;2023-05-14T05:11:27;2.90;;;2.40;;
76978;SDS011;65911;47.502;19.148;2023-05-14T05:14:29;4.07;;;2.42;;
76978;SDS011;65911;47.502;19.148;2023-05-14T05:17:31;5.43;;;2.50;;
76978;SDS011;65911;47.502;19.148;2023-05-14T05:20:33;3.85;;;2.38;;
76978;SDS011;65911;47.502;19.148;2023-05-14T05:23:36;4.53;;;2.60;;
76978;SDS011;65911;47.502;19.148;2023-05-14T05:26:38;3.85;;;2.70;;
76978;SDS011;65911;47.502;19.148;2023-05-14T05:29:40;4.78;;;3.17;;
76978;SDS011;65911;47.502;19.148;2023-05-14T05:32:42;4.28;;;2.85;;
76978;SDS011;65911;47.502;19.148;2023-05-14T05:35:44;4.15;;;2.67;;
76978;SDS011;65911;47.502;19.148;2023-05-14T05:38:47;3.37;;;2.60;;
76978;SDS011;65911;47.502;19.148;2023-05-14T05:41:49;5.70;;;2.92;;
76978;SDS011;65911;47.502;19.148;2023-05-14T05:44:51;3.78;;;2.60;;
76978;SDS011;65911;47.502;19.148;2023-05-14T05:47:53;4.13;;;3.23;;
76978;SDS011;65911;47.502;19.148;2023-05-14T05:50:55;4.40;;;2.90;;
76978;SDS011;65911;47.502;19.148;2023-05-14T05:53:58;3.47;;;2.53;;
76978;SDS011;65911;47.502;19.148;2023-05-14T05:57:00;6.10;;;2.95;;
76978;SDS011;65911;47.502;19.148;2023-05-14T06:00:02;4.53;;;2.45;;
76978;SDS011;65911;47.502;19.148;2023-05-14T06:03:14;6.45;;;2.58;;
76978;SDS011;65911;47.502;19.148;2023-05-14T06:06:16;3.85;;;2.83;;
76978;SDS011;65911;47.502;19.148;2023-05-14T06:09:18;4.07;;;2.47;;
76978;SDS011;65911;47.502;19.148;2023-05-14T06:12:21;4.50;;;2.80;;
76978;SDS011;65911;47.502;19.148;2023-05-14T06:15:23;4.15;;;2.90;;
76978;SDS011;65911;47.502;19.148;2023-05-14T06:18:25;3.33;;;2.83;;
76978;SDS011;65911;47.502;19.148;2023-05-14T06:21:28;6.32;;;2.83;;
76978;SDS011;65911;47.502;19.148;2023-05-14T06:24:30;5.20;;;2.85;;
76978;SDS011;65911;47.502;19.148;2023-05-14T06:27:32;4.70;;;3.00;;
76978;SDS011;65911;47.502;19.148;2023-05-14T06:30:34;4.32;;;3.03;;
76978;SDS011;65911;47.502;19.148;2023-05-14T06:33:36;4.18;;;3.17;;
76978;SDS011;65911;47.502;19.148;2023-05-14T06:36:39;5.03;;;3.13;;
76978;SDS011;65911;47.502;19.148;2023-05-14T06:39:41;5.97;;;2.97;;
76978;SDS011;65911;47.502;19.148;2023-05-14T06:42:51;8.30;;;3.25;;
76978;SDS011;65911;47.502;19.148;2023-05-14T06:45:53;4.38;;;3.00;;
76978;SDS011;65911;47.502;19.148;2023-05-14T06:48:56;3.77;;;3.00;;
76978;SDS011;65911;47.502;19.148;2023-05-14T06:52:00;3.85;;;3.10;;
76978;SDS011;65911;47.502;19.148;2023-05-14T06:55:02;5.38;;;2.97;;
76978;SDS011;65911;47.502;19.148;2023-05-14T06:58:05;3.90;;;3.20;;
76978;SDS011;65911;47.502;19.148;2023-05-14T07:01:08;4.93;;;2.90;;
76978;SDS011;65911;47.502;19.148;2023-05-14T07:04:10;7.32;;;3.22;;
76978;SDS011;65911;47.502;19.148;2023-05-14T07:07:12;3.67;;;3.30;;
76978;SDS011;65911;47.502;19.148;2023-05-14T07:10:18;4.40;;;2.90;;
76978;SDS011;65911;47.502;19.148;2023-05-14T07:13:20;4.22;;;3.30;;
76978;SDS011;65911;47.502;19.148;2023-05-14T07:16:22;4.78;;;2.55;;
76978;SDS011;65911;47.502;19.148;2023-05-14T07:19:24;4.50;;;3.20;;
76978;SDS011;65911;47.502;19.148;2023-05-14T07:22:29;4.55;;;3.20;;
76978;SDS011;65911;47.502;19.148;2023-05-14T07:25:31;5.30;;;2.80;;
76978;SDS011;65911;47.502;19.148;2023-05-14T07:28:33;5.53;;;3.13;;
76978;SDS011;65911;47.502;19.148;2023-05-14T07:31:36;3.67;;;2.63;;
76978;SDS011;65911;47.502;19.148;2023-05-14T07:34:38;3.92;;;3.17;;
76978;SDS011;65911;47.502;19.148;2023-05-14T07:37:40;5.47;;;3.13;;
76978;SDS011;65911;47.502;19.148;2023-05-14T07:40:43;6.73;;;3.50;;
76978;SDS011;65911;47.502;19.148;2023-05-14T07:43:45;4.43;;;3.42;;
76978;SDS011;65911;47.502;19.148;2023-05-14T07:46:48;3.95;;;2.95;;
76978;SDS011;65911;47.502;19.148;2023-05-14T07:49:54;4.23;;;3.03;;
76978;SDS011;65911;47.502;19.148;2023-05-14T07:52:57;4.25;;;3.10;;
76978;SDS011;65911;47.502;19.148;2023-05-14T07:55:59;3.85;;;2.70;;
76978;SDS011;65911;47.502;19.148;2023-05-14T07:59:01;5.90;;;3.10;;
76978;SDS011;65911;47.502;19.148;2023-05-14T08:02:07;5.13;;;2.75;;
76978;SDS011;65911;47.502;19.148;2023-05-14T08:05:11;5.88;;;2.83;;
76978;SDS011;65911;47.502;19.148;2023-05-14T08:08:13;5.85;;;2.95;;
76978;SDS011;65911;47.502;19.148;2023-05-14T08:11:15;3.97;;;2.97;;
76978;SDS011;65911;47.502;19.148;2023-05-14T08:14:17;6.07;;;3.28;;
76978;SDS011;65911;47.502;19.148;2023-05-14T08:17:19;3.92;;;3.28;;
76978;SDS011;65911;47.502;19.148;2023-05-14T08:20:22;4.40;;;3.40;;
76978;SDS011;65911;47.502;19.148;2023-05-14T08:23:25;5.78;;;2.90;;
76978;SDS011;65911;47.502;19.148;2023-05-14T08:26:27;5.25;;;3.20;;
76978;SDS011;65911;47.502;19.148;2023-05-14T08:29:29;4.88;;;3.22;;
76978;SDS011;65911;47.502;19.148;2023-05-14T08:32:32;3.95;;;3.35;;
76978;SDS011;65911;47.502;19.148;2023-05-14T08:35:34;4.10;;;3.35;;
76978;SDS011;65911;47.502;19.148;2023-05-14T08:38:36;4.30;;;3.63;;
76978;SDS011;65911;47.502;19.148;2023-05-14T08:41:38;4.40;;;3.23;;
76978;SDS011;65911;47.502;19.148;2023-05-14T08:44:47;4.65;;;3.00;;
76978;SDS011;65911;47.502;19.148;2023-05-14T08:47:52;5.53;;;3.30;;
76978;SDS011;65911;47.502;19.148;2023-05-14T08:50:56;6.07;;;3.50;;
76978;SDS011;65911;47.502;19.148;2023-05-14T08:53:59;6.82;;;3.40;;
76978;SDS011;65911;47.502;19.148;2023-05-14T08:57:03;5.47;;;3.40;;
76978;SDS011;65911;47.502;19.148;2023-05-14T09:00:06;5.30;;;3.45;;
76978;SDS011;65911;47.502;19.148;2023-05-14T09:03:09;4.65;;;3.00;;
76978;SDS011;65911;47.502;19.148;2023-05-14T09:06:12;5.15;;;3.60;;
76978;SDS011;65911;47.502;19.148;2023-05-14T09:09:15;4.15;;;3.13;;
76978;SDS011;65911;47.502;19.148;2023-05-14T09:12:17;4.87;;;3.43;;
76978;SDS011;65911;47.502;19.148;2023-05-14T09:15:20;6.65;;;3.90;;
76978;SDS011;65911;47.502;19.148;2023-05-14T09:18:22;5.15;;;3.75;;
76978;SDS011;65911;47.502;19.148;2023-05-14T09:21:24;4.47;;;3.60;;
76978;SDS011;65911;47.502;19.148;2023-05-14T09:24:27;5.65;;;3.53;;
76978;SDS011;65911;47.502;19.148;2023-05-14T09:27:30;4.38;;;3.50;;
76978;SDS011;65911;47.502;19.148;2023-05-14T09:30:33;4.78;;;3.58;;
76978;SDS011;65911;47.502;19.148;2023-05-14T09:33:37;5.55;;;3.60;;
76978;SDS011;65911;47.502;19.148;2023-05-14T09:36:39;4.35;;;3.13;;
76978;SDS011;65911;47.502;19.148;2023-05-14T09:39:42;3.92;;;3.17;;
76978;SDS011;65911;47.502;19.148;2023-05-14T09:42:44;4.87;;;3.30;;
76978;SDS011;65911;47.502;19.148;2023-05-14T09:45:47;6.85;;;5.05;;
76978;SDS011;65911;47.502;19.148;2023-05-14T09:48:49;4.78;;;3.92;;
76978;SDS011;65911;47.502;19.148;2023-05-14T09:51:51;3.90;;;3.33;;
76978;SDS011;65911;47.502;19.148;2023-05-14T09:54:53;4.10;;;3.35;;
76978;SDS011;65911;47.502;19.148;2023-05-14T09:57:55;6.63;;;4.30;;
76978;SDS011;65911;47.502;19.148;2023-05-14T10:00:58;5.22;;;3.88;;
76978;SDS011;65911;47.502;19.148;2023-05-14T10:04:02;3.22;;;2.90;;
76978;SDS011;65911;47.502;19.148;2023-05-14T10:07:07;5.82;;;3.47;;
76978;SDS011;65911;47.502;19.148;2023-05-14T10:10:12;5.15;;;3.38;;
76978;SDS011;65911;47.502;19.148;2023-05-14T10:13:17;5.53;;;3.80;;
76978;SDS011;65911;47.502;19.148;2023-05-14T10:19:27;5.47;;;4.07;;
76978;SDS011;65911;47.502;19.148;2023-05-14T10:22:34;5.17;;;3.80;;
76978;SDS011;65911;47.502;19.148;2023-05-14T10:25:36;6.28;;;3.90;;
76978;SDS011;65911;47.502;19.148;2023-05-14T10:28:38;4.93;;;4.00;;
76978;SDS011;65911;47.502;19.148;2023-05-14T10:31:53;6.22;;;4.13;;
76978;SDS011;65911;47.502;19.148;2023-05-14T10:34:56;5.07;;;3.50;;
76978;SDS011;65911;47.502;19.148;2023-05-14T10:37:59;5.90;;;3.60;;
76978;SDS011;65911;47.502;19.148;2023-05-14T10:41:06;5.20;;;3.83;;
76978;SDS011;65911;47.502;19.148;2023-05-14T10:44:12;8.63;;;4.37;;
76978;SDS011;65911;47.502;19.148;2023-05-14T10:47:14;4.88;;;3.88;;
76978;SDS011;65911;47.502;19.148;2023-05-14T10:50:18;5.75;;;4.20;;
76978;SDS011;65911;47.502;19.148;2023-05-14T10:53:31;4.67;;;3.67;;
76978;SDS011;65911;47.502;19.148;2023-05-14T10:56:34;6.35;;;3.45;;
76978;SDS011;65911;47.502;19.148;2023-05-14T10:59:39;5.65;;;4.05;;
76978;SDS011;65911;47.502;19.148;2023-05-14T11:02:43;6.28;;;3.72;;
76978;SDS011;65911;47.502;19.148;2023-05-14T11:05:45;7.30;;;4.20;;
76978;SDS011;65911;47.502;19.148;2023-05-14T11:08:48;4.95;;;4.20;;
76978;SDS011;65911;47.502;19.148;2023-05-14T11:11:52;6.03;;;4.10;;
76978;SDS011;65911;47.502;19.148;2023-05-14T11:14:55;4.20;;;3.63;;
76978;SDS011;65911;47.502;19.148;2023-05-14T11:17:58;5.75;;;3.92;;
76978;SDS011;65911;47.502;19.148;2023-05-14T11:21:01;4.93;;;3.67;;
76978;SDS011;65911;47.502;19.148;2023-05-14T11:24:04;4.40;;;3.60;;
76978;SDS011;65911;47.502;19.148;2023-05-14T11:27:08;4.97;;;3.60;;
76978;SDS011;65911;47.502;19.148;2023-05-14T11:30:11;6.07;;;4.10;;
76978;SDS011;65911;47.502;19.148;2023-05-14T11:33:15;5.53;;;4.05;;
76978;SDS011;65911;47.502;19.148;2023-05-14T11:36:18;6.25;;;3.58;;
76978;SDS011;65911;47.502;19.148;2023-05-14T11:39:20;5.47;;;4.05;;
76978;SDS011;65911;47.502;19.148;2023-05-14T11:42:22;5.00;;;4.20;;
76978;SDS011;65911;47.502;19.148;2023-05-14T11:45:25;5.17;;;3.57;;
76978;SDS011;65911;47.502;19.148;2023-05-14T11:48:28;4.90;;;3.90;;
76978;SDS011;65911;47.502;19.148;2023-05-14T11:51:30;7.13;;;3.78;;
76978;SDS011;65911;47.502;19.148;2023-05-14T11:54:32;5.47;;;3.67;;
76978;SDS011;65911;47.502;19.148;2023-05-14T11:57:35;5.68;;;3.50;;
76978;SDS011;65911;47.502;19.148;2023-05-14T12:00:38;4.75;;;3.55;;
76978;SDS011;65911;47.502;19.148;2023-05-14T12:03:40;5.35;;;3.90;;
76978;SDS011;65911;47.502;19.148;2023-05-14T12:06:43;5.60;;;3.63;;
76978;SDS011;65911;47.502;19.148;2023-05-14T12:09:48;4.85;;;3.33;;
76978;SDS011;65911;47.502;19.148;2023-05-14T12:12:50;6.45;;;3.78;;
76978;SDS011;65911;47.502;19.148;2023-05-14T12:15:53;4.83;;;3.00;;
76978;SDS011;65911;47.502;19.148;2023-05-14T12:19:00;4.80;;;3.50;;
76978;SDS011;65911;47.502;19.148;2023-05-14T12:22:02;5.72;;;3.50;;
76978;SDS011;65911;47.502;19.148;2023-05-14T12:25:09;4.93;;;3.53;;
76978;SDS011;65911;47.502;19.148;2023-05-14T12:28:16;5.18;;;3.15;;
76978;SDS011;65911;47.502;19.148;2023-05-14T12:31:26;5.13;;;3.65;;
76978;SDS011;65911;47.502;19.148;2023-05-14T12:34:29;5.93;;;3.70;;
76978;SDS011;65911;47.502;19.148;2023-05-14T12:37:31;6.03;;;3.70;;
76978;SDS011;65911;47.502;19.148;2023-05-14T12:40:34;5.13;;;3.45;;
76978;SDS011;65911;47.502;19.148;2023-05-14T12:43:37;5.85;;;3.58;;
76978;SDS011;65911;47.502;19.148;2023-05-14T12:46:43;4.53;;;3.87;;
76978;SDS011;65911;47.502;19.148;2023-05-14T12:49:45;4.97;;;3.58;;
76978;SDS011;65911;47.502;19.148;2023-05-14T12:52:47;6.45;;;3.88;;
76978;SDS011;65911;47.502;19.148;2023-05-14T12:55:49;6.20;;;3.50;;
76978;SDS011;65911;47.502;19.148;2023-05-14T12:58:52;4.78;;;3.88;;
76978;SDS011;65911;47.502;19.148;2023-05-14T13:01:56;4.22;;;3.35;;
76978;SDS011;65911;47.502;19.148;2023-05-14T13:04:58;8.68;;;4.00;;
76978;SDS011;65911;47.502;19.148;2023-05-14T13:08:03;6.82;;;4.05;;
76978;SDS011;65911;47.502;19.148;2023-05-14T13:11:05;7.05;;;4.38;;
76978;SDS011;65911;47.502;19.148;2023-05-14T13:14:07;5.95;;;4.20;;
76978;SDS011;65911;47.502;19.148;2023-05-14T13:17:09;5.07;;;4.00;;
76978;SDS011;65911;47.502;19.148;2023-05-14T13:20:12;6.95;;;4.28;;
76978;SDS011;65911;47.502;19.148;2023-05-14T13:23:14;6.35;;;4.38;;
76978;SDS011;65911;47.502;19.148;2023-05-14T13:26:16;5.20;;;4.03;;
76978;SDS011;65911;47.502;19.148;2023-05-14T13:29:18;7.97;;;4.30;;
76978;SDS011;65911;47.502;19.148;2023-05-14T13:32:20;6.00;;;4.13;;
76978;SDS011;65911;47.502;19.148;2023-05-14T13:35:23;6.68;;;4.30;;
76978;SDS011;65911;47.502;19.148;2023-05-14T13:38:25;7.25;;;4.35;;
76978;SDS011;65911;47.502;19.148;2023-05-14T13:41:27;6.78;;;4.32;;
76978;SDS011;65911;47.502;19.148;2023-05-14T13:44:30;7.05;;;4.00;;
76978;SDS011;65911;47.502;19.148;2023-05-14T13:47:32;5.40;;;3.93;;
76978;SDS011;65911;47.502;19.148;2023-05-14T13:50:35;6.30;;;4.40;;
76978;SDS011;65911;47.502;19.148;2023-05-14T13:53:37;5.45;;;3.70;;
76978;SDS011;65911;47.502;19.148;2023-05-14T13:56:39;4.97;;;4.10;;
76978;SDS011;65911;47.502;19.148;2023-05-14T13:59:42;6.85;;;3.97;;
76978;SDS011;65911;47.502;19.148;2023-05-14T14:02:44;5.78;;;4.03;;
76978;SDS011;65911;47.502;19.148;2023-05-14T14:05:46;6.45;;;3.90;;
76978;SDS011;65911;47.502;19.148;2023-05-14T14:08:52;5.18;;;3.45;;
76978;SDS011;65911;47.502;19.148;2023-05-14T14:11:54;6.05;;;3.95;;
76978;SDS011;65911;47.502;19.148;2023-05-14T14:14:56;4.75;;;4.25;;
76978;SDS011;65911;47.502;19.148;2023-05-14T14:17:59;4.97;;;3.90;;
76978;SDS011;65911;47.502;19.148;2023-05-14T14:21:01;4.70;;;4.15;;
76978;SDS011;65911;47.502;19.148;2023-05-14T14:24:03;5.97;;;3.75;;
76978;SDS011;65911;47.502;19.148;2023-05-14T14:27:06;5.93;;;4.10;;
76978;SDS011;65911;47.502;19.148;2023-05-14T14:30:09;8.05;;;4.30;;
76978;SDS011;65911;47.502;19.148;2023-05-14T14:33:17;5.50;;;4.30;;
76978;SDS011;65911;47.502;19.148;2023-05-14T14:36:19;5.80;;;4.15;;
76978;SDS011;65911;47.502;19.148;2023-05-14T14:39:22;4.95;;;3.20;;
76978;SDS011;65911;47.502;19.148;2023-05-14T14:42:26;8.43;;;3.33;;
76978;SDS011;65911;47.502;19.148;2023-05-14T14:45:28;5.25;;;3.17;;
76978;SDS011;65911;47.502;19.148;2023-05-14T14:48:31;3.77;;;2.90;;
76978;SDS011;65911;47.502;19.148;2023-05-14T14:51:40;4.53;;;3.40;;
76978;SDS011;65911;47.502;19.148;2023-05-14T14:54:43;4.47;;;2.70;;
76978;SDS011;65911;47.502;19.148;2023-05-14T14:57:47;4.93;;;3.37;;
76978;SDS011;65911;47.502;19.148;2023-05-14T15:00:50;3.45;;;2.45;;
76978;SDS011;65911;47.502;19.148;2023-05-14T15:03:55;4.80;;;2.78;;
76978;SDS011;65911;47.502;19.148;2023-05-14T15:06:57;3.38;;;2.67;;
76978;SDS011;65911;47.502;19.148;2023-05-14T15:10:00;4.70;;;2.80;;
76978;SDS011;65911;47.502;19.148;2023-05-14T15:13:02;4.10;;;2.83;;
76978;SDS011;65911;47.502;19.148;2023-05-14T15:16:05;5.20;;;2.78;;
76978;SDS011;65911;47.502;19.148;2023-05-14T15:19:08;3.80;;;2.50;;
76978;SDS011;65911;47.502;19.148;2023-05-14T15:22:10;2.85;;;2.05;;
76978;SDS011;65911;47.502;19.148;2023-05-14T15:25:12;3.58;;;2.30;;
76978;SDS011;65911;47.502;19.148;2023-05-14T15:28:14;3.20;;;2.10;;
76978;SDS011;65911;47.502;19.148;2023-05-14T15:31:16;3.47;;;2.50;;
76978;SDS011;65911;47.502;19.148;2023-05-14T15:34:19;4.18;;;2.42;;
76978;SDS011;65911;47.502;19.148;2023-05-14T15:37:25;3.67;;;2.95;;
76978;SDS011;65911;47.502;19.148;2023-05-14T15:40:27;5.13;;;2.55;;
76978;SDS011;65911;47.502;19.148;2023-05-14T15:43:30;5.35;;;2.47;;
76978;SDS011;65911;47.502;19.148;2023-05-14T15:46:32;4.15;;;2.47;;
76978;SDS011;65911;47.502;19.148;2023-05-14T15:49:34;2.47;;;1.90;;
76978;SDS011;65911;47.502;19.148;2023-05-14T15:52:37;4.65;;;2.75;;
76978;SDS011;65911;47.502;19.148;2023-05-14T15:55:40;4.65;;;2.80;;
76978;SDS011;65911;47.502;19.148;2023-05-14T15:58:43;4.57;;;2.70;;
76978;SDS011;65911;47.502;19.148;2023-05-14T16:01:45;3.42;;;2.50;;
76978;SDS011;65911;47.502;19.148;2023-05-14T16:04:47;3.85;;;2.33;;
76978;SDS011;65911;47.502;19.148;2023-05-14T16:07:50;3.72;;;2.50;;
76978;SDS011;65911;47.502;19.148;2023-05-14T16:10:52;2.78;;;2.17;;
76978;SDS011;65911;47.502;19.148;2023-05-14T16:13:55;5.38;;;2.63;;
76978;SDS011;65911;47.502;19.148;2023-05-14T16:16:57;3.42;;;2.63;;
76978;SDS011;65911;47.502;19.148;2023-05-14T16:19:59;2.97;;;2.20;;
76978;SDS011;65911;47.502;19.148;2023-05-14T16:23:01;4.68;;;2.05;;
76978;SDS011;65911;47.502;19.148;2023-05-14T16:26:04;2.67;;;2.20;;
76978;SDS011;65911;47.502;19.148;2023-05-14T16:29:06;3.03;;;2.20;;
76978;SDS011;65911;47.502;19.148;2023-05-14T16:32:09;2.85;;;2.38;;
76978;SDS011;65911;47.502;19.148;2023-05-14T16:35:11;5.15;;;1.75;;
76978;SDS011;65911;47.502;19.148;2023-05-14T16:38:13;2.75;;;1.85;;
76978;SDS011;65911;47.502;19.148;2023-05-14T16:41:15;2.75;;;2.20;;
76978;SDS011;65911;47.502;19.148;2023-05-14T16:44:18;2.78;;;2.00;;
76978;SDS011;65911;47.502;19.148;2023-05-14T16:47:20;3.55;;;2.42;;
76978;SDS011;65911;47.502;19.148;2023-05-14T16:50:22;2.27;;;2.03;;
76978;SDS011;65911;47.502;19.148;2023-05-14T16:53:25;2.80;;;2.35;;
76978;SDS011;65911;47.502;19.148;2023-05-14T16:56:27;2.58;;;2.10;;
76978;SDS011;65911;47.502;19.148;2023-05-14T16:59:30;3.43;;;2.57;;
76978;SDS011;65911;47.502;19.148;2023-05-14T17:02:34;2.53;;;1.60;;
76978;SDS011;65911;47.502;19.148;2023-05-14T17:05:37;2.25;;;1.92;;
76978;SDS011;65911;47.502;19.148;2023-05-14T17:08:39;2.58;;;2.17;;
76978;SDS011;65911;47.502;19.148;2023-05-14T17:11:41;2.28;;;1.98;;
76978;SDS011;65911;47.502;19.148;2023-05-14T17:14:43;2.55;;;1.90;;
76978;SDS011;65911;47.502;19.148;2023-05-14T17:17:45;3.22;;;2.10;;
76978;SDS011;65911;47.502;19.148;2023-05-14T17:20:48;3.07;;;1.90;;
76978;SDS011;65911;47.502;19.148;2023-05-14T17:23:50;3.33;;;2.17;;
76978;SDS011;65911;47.502;19.148;2023-05-14T17:26:52;3.03;;;1.90;;
76978;SDS011;65911;47.502;19.148;2023-05-14T17:29:54;2.83;;;2.13;;
76978;SDS011;65911;47.502;19.148;2023-05-14T17:32:57;4.15;;;2.10;;
76978;SDS011;65911;47.502;19.148;2023-05-14T17:35:59;2.70;;;1.90;;
76978;SDS011;65911;47.502;19.148;2023-05-14T17:39:01;5.07;;;2.53;;
76978;SDS011;65911;47.502;19.148;2023-05-14T17:42:03;3.38;;;2.25;;
76978;SDS011;65911;47.502;19.148;2023-05-14T17:45:07;3.42;;;2.30;;
76978;SDS011;65911;47.502;19.148;2023-05-14T17:48:09;3.83;;;2.80;;
76978;SDS011;65911;47.502;19.148;2023-05-14T17:51:11;4.60;;;2.60;;
76978;SDS011;65911;47.502;19.148;2023-05-14T17:54:13;4.45;;;2.50;;
76978;SDS011;65911;47.502;19.148;2023-05-14T17:57:16;3.78;;;2.35;;
76978;SDS011;65911;47.502;19.148;2023-05-14T18:00:21;4.53;;;2.80;;
76978;SDS011;65911;47.502;19.148;2023-05-14T18:03:23;2.88;;;2.10;;
76978;SDS011;65911;47.502;19.148;2023-05-14T18:06:25;3.22;;;2.50;;
76978;SDS011;65911;47.502;19.148;2023-05-14T18:09:27;3.08;;;2.60;;
76978;SDS011;65911;47.502;19.148;2023-05-14T18:12:30;3.33;;;2.53;;
76978;SDS011;65911;47.502;19.148;2023-05-14T18:15:32;4.25;;;2.72;;